createdAt,value
2022-10-19T00:01:22.482Z,5.80
2022-10-19T00:06:29.482Z,5.00
2022-10-19T00:11:38.400Z,4.53
2022-10-19T00:16:44.193Z,4.75
2022-10-19T00:26:56.867Z,5.07
2022-10-19T00:32:01.937Z,4.88
2022-10-19T00:37:06.931Z,5.65
2022-10-19T00:42:16.435Z,5.28
2022-10-19T00:47:22.208Z,6.30
2022-10-19T00:52:29.287Z,6.38
2022-10-19T00:57:36.906Z,5.38
2022-10-19T01:02:41.987Z,5.95
2022-10-19T01:07:47.318Z,5.35
2022-10-19T01:13:14.058Z,6.85
2022-10-19T01:18:24.335Z,6.63
2022-10-19T01:23:56.412Z,5.90
2022-10-19T01:29:09.780Z,8.23
2022-10-19T01:34:21.261Z,6.88
2022-10-19T01:39:29.721Z,7.53
2022-10-19T01:44:40.517Z,7.85
2022-10-19T01:49:52.215Z,7.18
2022-10-19T01:54:59.770Z,7.45
2022-10-19T02:00:07.691Z,6.88
2022-10-19T02:05:16.070Z,6.50
2022-10-19T02:10:21.681Z,6.80
2022-10-19T02:15:28.739Z,5.75
2022-10-19T02:20:38.218Z,5.70
2022-10-19T02:25:43.215Z,6.50
2022-10-19T02:30:48.301Z,6.25
2022-10-19T02:35:56.057Z,6.47
2022-10-19T02:41:06.985Z,6.82
2022-10-19T02:46:14.431Z,6.13
2022-10-19T02:51:39.091Z,6.75
2022-10-19T02:56:44.137Z,6.75
2022-10-19T03:01:49.241Z,7.88
2022-10-19T03:06:56.955Z,8.80
2022-10-19T03:12:02.051Z,7.55
2022-10-19T03:17:07.447Z,6.78
2022-10-19T03:22:16.079Z,7.00
2022-10-19T03:27:21.274Z,6.45
2022-10-19T03:32:26.364Z,8.13
2022-10-19T03:37:34.305Z,7.70
2022-10-19T03:47:44.349Z,7.75
2022-10-19T03:52:52.350Z,8.43
2022-10-19T03:57:57.442Z,8.25
2022-10-19T04:03:02.444Z,7.72
2022-10-19T04:08:10.352Z,7.35
2022-10-19T04:13:15.385Z,7.43
2022-10-19T04:18:20.655Z,9.00
2022-10-19T04:23:30.913Z,7.93
2022-10-19T04:28:38.414Z,9.05
2022-10-19T04:33:44.105Z,8.10
2022-10-19T04:38:51.968Z,8.05
2022-10-19T04:44:00.854Z,8.68
2022-10-19T04:49:07.092Z,10.55
2022-10-19T04:54:15.274Z,11.70
2022-10-19T05:04:25.352Z,14.23
2022-10-19T05:09:33.096Z,11.75
2022-10-19T05:14:41.908Z,11.48
2022-10-19T05:19:48.009Z,12.48
2022-10-19T05:24:58.084Z,11.68
2022-10-19T05:30:08.965Z,13.00
2022-10-19T05:35:17.500Z,13.20
2022-10-19T05:40:28.618Z,13.82
2022-10-19T05:45:38.111Z,18.13
2022-10-19T05:50:43.318Z,15.48
2022-10-19T05:55:51.484Z,16.58
2022-10-19T06:06:17.388Z,17.42
2022-10-19T06:11:27.924Z,17.83
2022-10-19T06:16:34.281Z,17.13
2022-10-19T06:21:41.969Z,21.02
2022-10-19T06:26:52.732Z,17.75
2022-10-19T06:31:59.981Z,18.05
2022-10-19T06:37:08.216Z,18.15
2022-10-19T06:42:21.317Z,18.35
2022-10-19T06:47:38.405Z,18.10
2022-10-19T06:52:55.295Z,17.55
2022-10-19T06:58:04.332Z,18.40
2022-10-19T07:03:09.776Z,20.27
2022-10-19T07:08:23.309Z,18.50
2022-10-19T07:13:32.419Z,16.67
2022-10-19T07:18:38.434Z,15.63
2022-10-19T09:34:22.221Z,5.38
2022-10-19T09:40:18.679Z,6.10
2022-10-19T09:45:34.133Z,6.78
2022-10-19T09:50:46.980Z,6.57
2022-10-19T09:56:26.058Z,8.18
2022-10-19T10:55:36.196Z,8.63
2022-10-19T11:05:49.535Z,7.50
2022-10-19T11:11:09.300Z,8.82
2022-10-19T11:16:19.251Z,9.77
2022-10-19T11:21:30.059Z,10.00
2022-10-19T11:27:04.206Z,8.60
2022-10-19T11:32:26.934Z,8.30
2022-10-19T11:37:49.387Z,7.60
2022-10-19T11:49:08.550Z,9.40
2022-10-19T11:54:49.523Z,8.02
2022-10-19T12:00:15.158Z,7.95
2022-10-19T12:06:04.221Z,8.05
2022-10-19T12:11:23.806Z,9.50
2022-10-19T12:21:47.026Z,9.13
2022-10-19T12:27:00.802Z,10.77
2022-10-19T12:32:14.525Z,9.57
2022-10-19T12:37:29.606Z,9.63
2022-10-19T12:42:53.619Z,8.45
2022-10-19T12:48:55.685Z,8.95
2022-10-19T12:54:59.942Z,8.77
2022-10-19T13:00:24.654Z,9.68
2022-10-19T13:05:44.231Z,9.57
2022-10-19T13:16:02.865Z,8.55
2022-10-19T13:21:10.577Z,8.35
2022-10-19T13:27:07.874Z,9.23
2022-10-19T13:32:38.114Z,8.10
2022-10-19T14:21:47.765Z,3.97
2022-10-19T14:50:31.704Z,4.22
2022-10-19T15:50:40.993Z,3.88
2022-10-19T15:55:49.797Z,4.40
2022-10-19T16:00:57.470Z,4.95
2022-10-19T16:06:03.006Z,5.22
2022-10-19T16:11:08.285Z,8.55
2022-10-19T16:16:20.731Z,8.15
2022-10-19T16:21:29.954Z,5.90
2022-10-19T16:26:35.120Z,5.68
2022-10-19T16:31:43.737Z,4.97
2022-10-19T16:36:49.302Z,6.90
2022-10-19T16:41:54.707Z,5.72
2022-10-19T16:47:03.058Z,5.38
2022-10-19T16:52:08.298Z,5.13
2022-10-19T16:57:13.362Z,4.57
2022-10-19T17:02:21.097Z,4.70
2022-10-19T17:07:26.610Z,4.65
2022-10-19T17:12:31.721Z,4.95
2022-10-19T17:17:39.486Z,4.47
2022-10-19T17:22:44.603Z,4.88
2022-10-19T17:27:53.172Z,4.82
2022-10-19T17:33:00.935Z,5.07
2022-10-19T17:38:05.978Z,4.53
2022-10-19T17:43:11.023Z,6.75
2022-10-19T17:48:19.210Z,6.18
2022-10-19T17:53:24.355Z,5.13
2022-10-19T17:58:29.442Z,5.20
2022-10-19T18:03:38.348Z,7.38
2022-10-19T18:08:44.913Z,8.77
2022-10-19T18:13:50.652Z,8.38
2022-10-19T18:18:59.883Z,7.32
2022-10-19T18:24:06.786Z,6.93
2022-10-19T18:29:14.978Z,7.35
2022-10-19T18:34:24.452Z,9.40
2022-10-19T18:39:29.465Z,8.05
2022-10-19T18:44:34.418Z,6.97
2022-10-19T18:49:42.071Z,5.00
2022-10-19T18:59:52.133Z,4.50
2022-10-19T19:04:59.956Z,4.78
2022-10-19T19:10:05.177Z,4.50
2022-10-19T19:15:11.589Z,4.18
2022-10-19T19:20:19.280Z,4.63
2022-10-19T19:30:29.472Z,4.65
2022-10-19T19:35:37.090Z,5.13
2022-10-19T19:40:43.294Z,6.00
2022-10-19T19:46:00.874Z,5.63
2022-10-19T19:51:11.793Z,6.05
2022-10-19T19:56:18.418Z,4.93
2022-10-19T20:01:24.520Z,4.20
2022-10-19T20:06:32.258Z,4.40
2022-10-19T20:16:47.038Z,3.47
2022-10-19T20:21:56.478Z,3.72
2022-10-19T20:27:01.501Z,3.90
2022-10-19T20:32:06.435Z,3.95
2022-10-19T20:37:14.139Z,3.75
2022-10-19T20:42:19.990Z,3.72
2022-10-19T20:47:25.124Z,4.15
2022-10-19T20:52:33.009Z,3.60
2022-10-19T20:57:38.323Z,4.38
2022-10-19T21:02:43.323Z,5.13
2022-10-19T21:07:50.851Z,4.90
2022-10-19T21:12:55.838Z,5.47
2022-10-19T21:18:00.940Z,5.45
2022-10-19T21:23:08.592Z,4.75
2022-10-19T21:28:13.567Z,4.18
2022-10-19T21:33:18.615Z,4.15
2022-10-19T21:38:26.320Z,5.45
2022-10-19T21:43:31.692Z,5.28
2022-10-19T21:48:37.240Z,4.88
2022-10-19T21:53:45.451Z,4.53
2022-10-19T21:58:51.078Z,5.07
2022-10-19T22:03:59.143Z,4.95
2022-10-19T22:09:09.109Z,5.28
2022-10-19T22:14:16.333Z,4.97
2022-10-19T22:19:21.534Z,4.88
2022-10-19T22:24:29.247Z,5.28
2022-10-19T22:29:34.308Z,5.07
2022-10-19T22:34:39.622Z,5.18
2022-10-19T22:39:47.441Z,5.38
2022-10-19T22:44:52.604Z,5.38
2022-10-19T22:49:57.655Z,5.75
2022-10-19T22:55:05.356Z,5.25
2022-10-19T23:00:11.889Z,5.20
2022-10-19T23:05:17.168Z,4.68
2022-10-19T23:10:24.964Z,6.13
2022-10-19T23:15:30.433Z,5.90
2022-10-19T23:20:35.506Z,6.05
2022-10-19T23:25:43.224Z,5.07
2022-10-19T23:30:48.267Z,5.53
2022-10-19T23:35:53.311Z,5.57
2022-10-19T23:41:01.016Z,5.22
2022-10-19T23:46:06.236Z,5.03
2022-10-19T23:51:12.715Z,5.38
2022-10-19T23:56:22.594Z,6.47
